Portada
METAR-TAF:

METAR-TAF

Aeroports :

Anapa, Rússia

latitud: 44-54N, longitud: 037-19E, altitud: 53 m

Observació

L'informe es va fer fa 33 minuts, a les 10:30 UTC
Vent 14 kt del Sud/Sud-Oest
Temperatura 22°C
Humitat 65%
Pressió 1013 hPa
Visibilitat 10 km o més
Núvols disperses a una alçada de 2800 ft

METAR: URKA 291030Z 21007MPS 9999 SCT028 22/15 Q1013 R22/010065 NOSIG RMK QFE754/1006

Hora: 15:03 (11:03 UTC)

Pronòstic

L'informe es va fer fa 3 hores i 10 minuts, a les 07:53 UTC
Pronòstic vàlid del 29 a les 09 UTC al 30 a les 09 UTC
Vent 6 kt del Sud amb ràfegues de 16 kt
Visibilitat 10 km o més
Núvols disperses a una alçada de 3000 ft, Cumulonimbus.
Temporalment
l' 29 a les 15 UTC al 30 a les 09 UTC
Vent 10 kt del Sud-Oest amb ràfegues de 23 kt
Visibilitat: 3100 m
Núvols disperses a una alçada de 1100 ft
Cel ennuvolat a una alçada de 2000 ft, Cumulonimbus.
xàfecs de pluja

TAF: URKA 290753Z 2909/3009 18003G08MPS 9999 SCT030CB TEMPO 2915/3009 23005G12MPS 3100 -SHRA SCT011 BKN020CB

Observacions i pronòstics meteorològics de més de 4000 aeroports (METAR i TAF).

Les estacions disponibles són els punts grocs i vermells al mapa.

Posi el ratolí al punt desitjat per veure el nom de l'estació.

Feu clic per veure les observacions i els pronòstics meteorològics.

Per canviar el mapa: feu clic els botons verds amb una creu de color negre per apropar; al botó verd amb un guió per allunyar la imatge; o en les fletxes verdes per a mapes adjacents.


METAR-TAF: